Hlavní strana
METAR-TAF:

METAR-TAF

Letiště :

Letiště Madeira

Funchal, Madeira, Portugalsko

zeměpisná šířka: 32-41-52N, zeměpisná délka: 016-46-28W, výška: 59 m

Aktuální stav počasí

Zpráva byla vytvořena před 22 minutami, v 21:00 UTC
Severoseverovýchodní vítr 8 kt, proměnlivý mezi severním a východním
Teplota 22°C
Vlhkost vzduchu 69%
Tlak 1019 hPa
Viditelnost 10 km a více
Skoro jasno ve výšce 1600 ft
Polojasno ve výšce 3000 ft

METAR: LPMA 182100Z 03008KT 010V080 9999 FEW016 SCT030 22/16 Q1019

Čas: 22:22 (21:22 UTC)

Předpověď počasí

Zpráva byla vytvořena před 4 hodinami a 22 minutami, v 17:00 UTC
Předpověď platná od 18 v 18 UTC do 19 v 18 UTC
Severovýchodní vítr 8 kt
Viditelnost 10 km a více
Polojasno ve výšce 1600 ft
Dočasný
od 18 v 18 UTC do 19 v 12 UTC
vítr z různých směrů 5 kt
Skoro jasno ve výšce 1600 ft
Oblačno až skoro zataženo ve výšce 3000 ft

TAF: LPMA 181700Z 1818/1918 05008KT 9999 SCT016 TEMPO 1818/1912 VRB05KT FEW016 BKN030

Stav a předpovědi počasí z více než 4 000 letišť (zprávy METAR a TAF).

Červené a žluté tečky na mapě představují dostupné meteorologické stanice.

Když kurzor umístíte na tečku, zobrazí se název stanice.

Pak kliknutím zobrazíte stav a předpověď počasí.

Chcete-li změnit mapu, kliknutím na zelené tlačítko se znaménkem +mapu přiblížíte, kliknutím na zelené tlačítko se znaménkem – mapu oddálíte a kliknutím na zelené šipky přejdete na sousední mapy.


METAR-TAF: